sensor_id;sensor_type;location;lat;lon;timestamp;P1;durP1;ratioP1;P2;durP2;ratioP2
47760;SDS011;33524;55.434;38.520;2023-03-19T00:02:04;8.20;;;4.70;;
47760;SDS011;33524;55.434;38.520;2023-03-19T00:04:43;9.73;;;3.78;;
47760;SDS011;33524;55.434;38.520;2023-03-19T00:07:11;7.78;;;4.78;;
47760;SDS011;33524;55.434;38.520;2023-03-19T00:09:39;10.30;;;3.90;;
47760;SDS011;33524;55.434;38.520;2023-03-19T00:12:06;7.55;;;4.60;;
47760;SDS011;33524;55.434;38.520;2023-03-19T00:14:34;5.50;;;3.70;;
47760;SDS011;33524;55.434;38.520;2023-03-19T00:17:00;6.95;;;4.65;;
47760;SDS011;33524;55.434;38.520;2023-03-19T00:19:27;9.07;;;4.28;;
47760;SDS011;33524;55.434;38.520;2023-03-19T00:21:54;8.45;;;4.10;;
47760;SDS011;33524;55.434;38.520;2023-03-19T00:24:21;8.45;;;4.45;;
47760;SDS011;33524;55.434;38.520;2023-03-19T00:26:48;8.02;;;4.55;;
47760;SDS011;33524;55.434;38.520;2023-03-19T00:29:15;8.77;;;4.97;;
47760;SDS011;33524;55.434;38.520;2023-03-19T00:31:41;7.60;;;4.78;;
47760;SDS011;33524;55.434;38.520;2023-03-19T00:34:08;8.77;;;4.57;;
47760;SDS011;33524;55.434;38.520;2023-03-19T00:36:35;10.00;;;5.37;;
47760;SDS011;33524;55.434;38.520;2023-03-19T00:39:02;10.05;;;5.90;;
47760;SDS011;33524;55.434;38.520;2023-03-19T00:41:29;12.37;;;5.60;;
47760;SDS011;33524;55.434;38.520;2023-03-19T00:43:56;7.47;;;4.68;;
47760;SDS011;33524;55.434;38.520;2023-03-19T00:46:23;8.85;;;5.37;;
47760;SDS011;33524;55.434;38.520;2023-03-19T00:48:51;8.65;;;5.18;;
47760;SDS011;33524;55.434;38.520;2023-03-19T00:51:21;9.68;;;6.75;;
47760;SDS011;33524;55.434;38.520;2023-03-19T00:53:49;11.10;;;5.53;;
47760;SDS011;33524;55.434;38.520;2023-03-19T00:56:17;9.45;;;5.45;;
47760;SDS011;33524;55.434;38.520;2023-03-19T00:58:45;8.68;;;5.28;;
47760;SDS011;33524;55.434;38.520;2023-03-19T01:01:13;9.68;;;6.15;;
47760;SDS011;33524;55.434;38.520;2023-03-19T01:03:42;8.80;;;5.65;;
47760;SDS011;33524;55.434;38.520;2023-03-19T01:06:10;8.63;;;4.87;;
47760;SDS011;33524;55.434;38.520;2023-03-19T01:08:37;11.30;;;5.55;;
47760;SDS011;33524;55.434;38.520;2023-03-19T01:11:06;10.95;;;4.85;;
47760;SDS011;33524;55.434;38.520;2023-03-19T01:13:35;9.88;;;4.55;;
47760;SDS011;33524;55.434;38.520;2023-03-19T01:16:02;8.88;;;4.95;;
47760;SDS011;33524;55.434;38.520;2023-03-19T01:18:29;8.10;;;4.80;;
47760;SDS011;33524;55.434;38.520;2023-03-19T01:20:57;8.52;;;4.55;;
47760;SDS011;33524;55.434;38.520;2023-03-19T01:23:23;7.82;;;5.28;;
47760;SDS011;33524;55.434;38.520;2023-03-19T01:25:50;6.65;;;4.62;;
47760;SDS011;33524;55.434;38.520;2023-03-19T01:28:17;8.75;;;5.32;;
47760;SDS011;33524;55.434;38.520;2023-03-19T01:30:44;6.47;;;4.32;;
47760;SDS011;33524;55.434;38.520;2023-03-19T01:33:12;7.10;;;4.87;;
47760;SDS011;33524;55.434;38.520;2023-03-19T01:35:39;7.20;;;3.80;;
47760;SDS011;33524;55.434;38.520;2023-03-19T01:38:06;6.93;;;4.80;;
47760;SDS011;33524;55.434;38.520;2023-03-19T01:40:34;7.35;;;5.05;;
47760;SDS011;33524;55.434;38.520;2023-03-19T01:43:18;8.82;;;4.97;;
47760;SDS011;33524;55.434;38.520;2023-03-19T01:45:48;5.50;;;3.10;;
47760;SDS011;33524;55.434;38.520;2023-03-19T01:48:22;7.13;;;4.73;;
47760;SDS011;33524;55.434;38.520;2023-03-19T01:50:54;8.38;;;4.45;;
47760;SDS011;33524;55.434;38.520;2023-03-19T01:53:24;7.68;;;4.95;;
47760;SDS011;33524;55.434;38.520;2023-03-19T01:55:56;9.47;;;4.93;;
47760;SDS011;33524;55.434;38.520;2023-03-19T01:58:27;7.15;;;4.32;;
47760;SDS011;33524;55.434;38.520;2023-03-19T02:00:56;8.43;;;5.22;;
47760;SDS011;33524;55.434;38.520;2023-03-19T02:03:24;8.05;;;4.65;;
47760;SDS011;33524;55.434;38.520;2023-03-19T02:05:52;6.70;;;3.30;;
47760;SDS011;33524;55.434;38.520;2023-03-19T02:08:22;11.65;;;4.78;;
47760;SDS011;33524;55.434;38.520;2023-03-19T02:10:50;6.37;;;4.20;;
47760;SDS011;33524;55.434;38.520;2023-03-19T02:13:21;8.48;;;4.82;;
47760;SDS011;33524;55.434;38.520;2023-03-19T02:15:48;6.72;;;4.30;;
47760;SDS011;33524;55.434;38.520;2023-03-19T02:18:16;8.55;;;4.62;;
47760;SDS011;33524;55.434;38.520;2023-03-19T02:20:48;5.22;;;4.00;;
47760;SDS011;33524;55.434;38.520;2023-03-19T02:24:31;7.70;;;4.10;;
47760;SDS011;33524;55.434;38.520;2023-03-19T02:26:19;8.35;;;3.83;;
47760;SDS011;33524;55.434;38.520;2023-03-19T02:28:50;5.53;;;4.20;;
47760;SDS011;33524;55.434;38.520;2023-03-19T02:31:18;5.18;;;3.72;;
47760;SDS011;33524;55.434;38.520;2023-03-19T02:34:03;6.03;;;3.60;;
47760;SDS011;33524;55.434;38.520;2023-03-19T02:36:50;6.90;;;4.43;;
47760;SDS011;33524;55.434;38.520;2023-03-19T02:39:22;6.87;;;3.87;;
47760;SDS011;33524;55.434;38.520;2023-03-19T02:41:56;7.53;;;5.12;;
47760;SDS011;33524;55.434;38.520;2023-03-19T02:44:25;7.53;;;3.83;;
47760;SDS011;33524;55.434;38.520;2023-03-19T02:46:51;5.72;;;3.53;;
47760;SDS011;33524;55.434;38.520;2023-03-19T02:49:18;8.40;;;3.95;;
47760;SDS011;33524;55.434;38.520;2023-03-19T02:51:45;8.75;;;4.87;;
47760;SDS011;33524;55.434;38.520;2023-03-19T02:54:11;8.68;;;4.70;;
47760;SDS011;33524;55.434;38.520;2023-03-19T02:56:38;7.62;;;3.78;;
47760;SDS011;33524;55.434;38.520;2023-03-19T02:59:05;5.85;;;3.35;;
47760;SDS011;33524;55.434;38.520;2023-03-19T03:01:32;6.22;;;3.62;;
47760;SDS011;33524;55.434;38.520;2023-03-19T03:03:59;6.87;;;4.53;;
47760;SDS011;33524;55.434;38.520;2023-03-19T03:06:25;9.65;;;4.82;;
47760;SDS011;33524;55.434;38.520;2023-03-19T03:08:52;6.97;;;3.72;;
47760;SDS011;33524;55.434;38.520;2023-03-19T03:11:19;5.30;;;3.30;;
47760;SDS011;33524;55.434;38.520;2023-03-19T03:13:46;6.12;;;3.75;;
47760;SDS011;33524;55.434;38.520;2023-03-19T03:16:12;6.80;;;3.70;;
47760;SDS011;33524;55.434;38.520;2023-03-19T03:18:40;7.95;;;4.45;;
47760;SDS011;33524;55.434;38.520;2023-03-19T03:21:07;7.00;;;4.90;;
47760;SDS011;33524;55.434;38.520;2023-03-19T03:23:35;7.78;;;4.95;;
47760;SDS011;33524;55.434;38.520;2023-03-19T03:26:02;10.07;;;5.35;;
47760;SDS011;33524;55.434;38.520;2023-03-19T03:28:29;10.98;;;4.90;;
47760;SDS011;33524;55.434;38.520;2023-03-19T03:30:57;7.37;;;4.45;;
47760;SDS011;33524;55.434;38.520;2023-03-19T03:33:25;8.63;;;4.95;;
47760;SDS011;33524;55.434;38.520;2023-03-19T03:35:52;8.73;;;4.00;;
47760;SDS011;33524;55.434;38.520;2023-03-19T03:38:18;8.05;;;4.68;;
47760;SDS011;33524;55.434;38.520;2023-03-19T03:40:48;7.60;;;4.20;;
47760;SDS011;33524;55.434;38.520;2023-03-19T03:43:18;7.22;;;4.57;;
47760;SDS011;33524;55.434;38.520;2023-03-19T03:45:46;8.38;;;4.20;;
47760;SDS011;33524;55.434;38.520;2023-03-19T03:48:14;8.07;;;4.68;;
47760;SDS011;33524;55.434;38.520;2023-03-19T03:50:41;11.00;;;5.53;;
47760;SDS011;33524;55.434;38.520;2023-03-19T03:53:09;12.93;;;5.25;;
47760;SDS011;33524;55.434;38.520;2023-03-19T03:55:37;9.55;;;4.97;;
47760;SDS011;33524;55.434;38.520;2023-03-19T03:58:04;7.78;;;4.87;;
47760;SDS011;33524;55.434;38.520;2023-03-19T04:00:31;7.85;;;4.45;;
47760;SDS011;33524;55.434;38.520;2023-03-19T04:02:59;7.45;;;4.00;;
47760;SDS011;33524;55.434;38.520;2023-03-19T04:05:26;9.95;;;4.50;;
47760;SDS011;33524;55.434;38.520;2023-03-19T04:07:52;9.65;;;5.40;;
47760;SDS011;33524;55.434;38.520;2023-03-19T04:10:19;10.30;;;5.03;;
47760;SDS011;33524;55.434;38.520;2023-03-19T04:12:46;10.20;;;5.25;;
47760;SDS011;33524;55.434;38.520;2023-03-19T04:15:13;7.90;;;5.18;;
47760;SDS011;33524;55.434;38.520;2023-03-19T04:17:41;8.40;;;4.40;;
47760;SDS011;33524;55.434;38.520;2023-03-19T04:20:08;7.90;;;4.15;;
47760;SDS011;33524;55.434;38.520;2023-03-19T04:22:36;7.15;;;4.00;;
47760;SDS011;33524;55.434;38.520;2023-03-19T04:25:03;10.23;;;5.35;;
47760;SDS011;33524;55.434;38.520;2023-03-19T04:27:30;7.40;;;4.22;;
47760;SDS011;33524;55.434;38.520;2023-03-19T04:29:57;6.28;;;3.42;;
47760;SDS011;33524;55.434;38.520;2023-03-19T04:32:24;6.97;;;4.32;;
47760;SDS011;33524;55.434;38.520;2023-03-19T04:34:51;9.07;;;3.90;;
47760;SDS011;33524;55.434;38.520;2023-03-19T04:37:18;7.20;;;4.25;;
47760;SDS011;33524;55.434;38.520;2023-03-19T04:39:45;6.72;;;4.53;;
47760;SDS011;33524;55.434;38.520;2023-03-19T04:42:12;8.93;;;5.18;;
47760;SDS011;33524;55.434;38.520;2023-03-19T04:44:39;9.35;;;4.75;;
47760;SDS011;33524;55.434;38.520;2023-03-19T04:47:07;12.65;;;6.00;;
47760;SDS011;33524;55.434;38.520;2023-03-19T04:49:37;9.15;;;4.85;;
47760;SDS011;33524;55.434;38.520;2023-03-19T04:52:04;10.38;;;6.85;;
47760;SDS011;33524;55.434;38.520;2023-03-19T04:54:32;8.30;;;3.42;;
47760;SDS011;33524;55.434;38.520;2023-03-19T04:56:59;5.65;;;3.58;;
47760;SDS011;33524;55.434;38.520;2023-03-19T04:59:27;4.62;;;3.72;;
47760;SDS011;33524;55.434;38.520;2023-03-19T05:01:54;7.43;;;4.10;;
47760;SDS011;33524;55.434;38.520;2023-03-19T05:04:21;7.37;;;4.15;;
47760;SDS011;33524;55.434;38.520;2023-03-19T05:06:49;6.95;;;2.95;;
47760;SDS011;33524;55.434;38.520;2023-03-19T05:09:16;5.20;;;2.92;;
47760;SDS011;33524;55.434;38.520;2023-03-19T05:11:43;5.07;;;2.80;;
47760;SDS011;33524;55.434;38.520;2023-03-19T05:14:10;4.43;;;2.92;;
47760;SDS011;33524;55.434;38.520;2023-03-19T05:16:37;7.78;;;3.45;;
47760;SDS011;33524;55.434;38.520;2023-03-19T05:19:05;5.18;;;2.90;;
47760;SDS011;33524;55.434;38.520;2023-03-19T05:21:34;5.37;;;3.33;;
47760;SDS011;33524;55.434;38.520;2023-03-19T05:24:01;5.57;;;3.15;;
47760;SDS011;33524;55.434;38.520;2023-03-19T05:26:28;5.30;;;2.92;;
47760;SDS011;33524;55.434;38.520;2023-03-19T05:28:56;5.85;;;3.37;;
47760;SDS011;33524;55.434;38.520;2023-03-19T05:31:24;3.97;;;2.70;;
47760;SDS011;33524;55.434;38.520;2023-03-19T05:33:52;3.35;;;2.30;;
47760;SDS011;33524;55.434;38.520;2023-03-19T05:36:19;5.35;;;2.83;;
47760;SDS011;33524;55.434;38.520;2023-03-19T05:38:47;5.82;;;2.90;;
47760;SDS011;33524;55.434;38.520;2023-03-19T05:41:14;5.60;;;3.00;;
47760;SDS011;33524;55.434;38.520;2023-03-19T05:43:41;4.55;;;2.67;;
47760;SDS011;33524;55.434;38.520;2023-03-19T05:46:09;6.43;;;3.40;;
47760;SDS011;33524;55.434;38.520;2023-03-19T05:48:36;5.45;;;3.15;;
47760;SDS011;33524;55.434;38.520;2023-03-19T05:51:05;4.95;;;2.80;;
47760;SDS011;33524;55.434;38.520;2023-03-19T05:53:32;4.93;;;3.10;;
47760;SDS011;33524;55.434;38.520;2023-03-19T05:55:59;3.97;;;2.40;;
47760;SDS011;33524;55.434;38.520;2023-03-19T05:58:26;5.35;;;2.72;;
47760;SDS011;33524;55.434;38.520;2023-03-19T06:00:54;3.60;;;2.40;;
47760;SDS011;33524;55.434;38.520;2023-03-19T06:03:22;4.25;;;2.42;;
47760;SDS011;33524;55.434;38.520;2023-03-19T06:05:49;2.40;;;1.90;;
47760;SDS011;33524;55.434;38.520;2023-03-19T06:08:17;5.47;;;3.40;;
47760;SDS011;33524;55.434;38.520;2023-03-19T06:10:45;5.47;;;2.70;;
47760;SDS011;33524;55.434;38.520;2023-03-19T06:13:12;4.45;;;2.65;;
47760;SDS011;33524;55.434;38.520;2023-03-19T06:15:39;3.50;;;2.10;;
47760;SDS011;33524;55.434;38.520;2023-03-19T06:18:06;4.32;;;2.12;;
47760;SDS011;33524;55.434;38.520;2023-03-19T06:20:33;4.93;;;3.33;;
47760;SDS011;33524;55.434;38.520;2023-03-19T06:23:01;4.40;;;2.05;;
47760;SDS011;33524;55.434;38.520;2023-03-19T06:25:28;5.05;;;2.90;;
47760;SDS011;33524;55.434;38.520;2023-03-19T06:27:55;4.90;;;1.87;;
47760;SDS011;33524;55.434;38.520;2023-03-19T06:30:22;2.47;;;1.58;;
47760;SDS011;33524;55.434;38.520;2023-03-19T06:32:49;5.57;;;2.50;;
47760;SDS011;33524;55.434;38.520;2023-03-19T06:35:16;2.78;;;1.92;;
47760;SDS011;33524;55.434;38.520;2023-03-19T06:37:43;4.82;;;2.45;;
47760;SDS011;33524;55.434;38.520;2023-03-19T06:40:10;4.30;;;2.60;;
47760;SDS011;33524;55.434;38.520;2023-03-19T06:42:38;4.93;;;2.83;;
47760;SDS011;33524;55.434;38.520;2023-03-19T06:45:05;5.72;;;3.10;;
47760;SDS011;33524;55.434;38.520;2023-03-19T06:47:32;5.35;;;2.97;;
47760;SDS011;33524;55.434;38.520;2023-03-19T06:49:59;3.35;;;2.28;;
47760;SDS011;33524;55.434;38.520;2023-03-19T06:52:41;5.82;;;2.72;;
47760;SDS011;33524;55.434;38.520;2023-03-19T06:55:08;3.75;;;1.27;;
47760;SDS011;33524;55.434;38.520;2023-03-19T06:57:37;3.45;;;1.45;;
47760;SDS011;33524;55.434;38.520;2023-03-19T07:00:05;2.37;;;1.90;;
47760;SDS011;33524;55.434;38.520;2023-03-19T07:02:35;2.85;;;1.90;;
47760;SDS011;33524;55.434;38.520;2023-03-19T07:05:01;2.78;;;1.83;;
47760;SDS011;33524;55.434;38.520;2023-03-19T07:07:29;5.82;;;2.58;;
47760;SDS011;33524;55.434;38.520;2023-03-19T07:09:56;1.48;;;1.12;;
47760;SDS011;33524;55.434;38.520;2023-03-19T07:12:23;12.02;;;1.85;;
47760;SDS011;33524;55.434;38.520;2023-03-19T07:14:53;4.25;;;1.92;;
47760;SDS011;33524;55.434;38.520;2023-03-19T07:17:21;5.53;;;2.72;;
47760;SDS011;33524;55.434;38.520;2023-03-19T07:19:49;5.97;;;3.80;;
47760;SDS011;33524;55.434;38.520;2023-03-19T07:22:16;4.50;;;2.15;;
47760;SDS011;33524;55.434;38.520;2023-03-19T07:24:43;9.70;;;4.65;;
47760;SDS011;33524;55.434;38.520;2023-03-19T07:27:10;5.78;;;3.72;;
47760;SDS011;33524;55.434;38.520;2023-03-19T07:29:37;7.12;;;3.22;;
47760;SDS011;33524;55.434;38.520;2023-03-19T07:32:03;8.30;;;4.87;;
47760;SDS011;33524;55.434;38.520;2023-03-19T07:34:30;6.03;;;3.83;;
47760;SDS011;33524;55.434;38.520;2023-03-19T07:36:57;6.37;;;3.92;;
47760;SDS011;33524;55.434;38.520;2023-03-19T07:39:23;8.52;;;5.00;;
47760;SDS011;33524;55.434;38.520;2023-03-19T07:41:50;9.82;;;5.12;;
47760;SDS011;33524;55.434;38.520;2023-03-19T07:44:17;15.57;;;4.70;;
47760;SDS011;33524;55.434;38.520;2023-03-19T07:46:44;9.68;;;5.45;;
47760;SDS011;33524;55.434;38.520;2023-03-19T07:49:10;15.75;;;5.90;;
47760;SDS011;33524;55.434;38.520;2023-03-19T07:51:37;7.35;;;3.80;;
47760;SDS011;33524;55.434;38.520;2023-03-19T07:54:04;10.98;;;4.90;;
47760;SDS011;33524;55.434;38.520;2023-03-19T07:56:30;8.98;;;4.97;;
47760;SDS011;33524;55.434;38.520;2023-03-19T07:58:57;9.85;;;4.47;;
47760;SDS011;33524;55.434;38.520;2023-03-19T08:01:24;6.90;;;3.10;;
47760;SDS011;33524;55.434;38.520;2023-03-19T08:03:52;7.03;;;3.80;;
47760;SDS011;33524;55.434;38.520;2023-03-19T08:06:18;7.35;;;3.45;;
47760;SDS011;33524;55.434;38.520;2023-03-19T08:08:45;7.57;;;3.25;;
47760;SDS011;33524;55.434;38.520;2023-03-19T08:11:12;5.87;;;3.62;;
47760;SDS011;33524;55.434;38.520;2023-03-19T08:13:39;6.95;;;2.58;;
47760;SDS011;33524;55.434;38.520;2023-03-19T08:16:05;6.00;;;3.62;;
47760;SDS011;33524;55.434;38.520;2023-03-19T08:18:34;3.08;;;1.98;;
47760;SDS011;33524;55.434;38.520;2023-03-19T08:21:01;7.30;;;2.65;;
47760;SDS011;33524;55.434;38.520;2023-03-19T08:23:29;6.32;;;3.37;;
47760;SDS011;33524;55.434;38.520;2023-03-19T08:25:56;5.93;;;3.50;;
47760;SDS011;33524;55.434;38.520;2023-03-19T08:28:22;6.72;;;3.35;;
47760;SDS011;33524;55.434;38.520;2023-03-19T08:30:49;7.50;;;4.07;;
47760;SDS011;33524;55.434;38.520;2023-03-19T08:33:16;8.93;;;4.35;;
47760;SDS011;33524;55.434;38.520;2023-03-19T08:35:43;6.25;;;3.87;;
47760;SDS011;33524;55.434;38.520;2023-03-19T08:38:09;8.15;;;4.40;;
47760;SDS011;33524;55.434;38.520;2023-03-19T08:40:36;4.60;;;3.37;;
47760;SDS011;33524;55.434;38.520;2023-03-19T08:43:03;5.78;;;3.05;;
47760;SDS011;33524;55.434;38.520;2023-03-19T08:45:29;6.07;;;3.75;;
47760;SDS011;33524;55.434;38.520;2023-03-19T08:47:56;5.47;;;3.12;;
47760;SDS011;33524;55.434;38.520;2023-03-19T08:50:23;10.15;;;4.68;;
47760;SDS011;33524;55.434;38.520;2023-03-19T08:52:50;6.72;;;4.50;;
47760;SDS011;33524;55.434;38.520;2023-03-19T08:55:17;8.93;;;3.97;;
47760;SDS011;33524;55.434;38.520;2023-03-19T08:57:43;6.32;;;3.47;;
47760;SDS011;33524;55.434;38.520;2023-03-19T09:00:10;5.65;;;2.55;;
47760;SDS011;33524;55.434;38.520;2023-03-19T09:02:37;7.85;;;3.78;;
47760;SDS011;33524;55.434;38.520;2023-03-19T09:05:05;5.62;;;2.20;;
47760;SDS011;33524;55.434;38.520;2023-03-19T09:07:32;6.22;;;3.03;;
47760;SDS011;33524;55.434;38.520;2023-03-19T09:09:59;3.60;;;2.33;;
47760;SDS011;33524;55.434;38.520;2023-03-19T09:12:25;6.37;;;2.78;;
47760;SDS011;33524;55.434;38.520;2023-03-19T09:14:52;7.03;;;3.35;;
47760;SDS011;33524;55.434;38.520;2023-03-19T09:17:19;4.03;;;2.60;;
47760;SDS011;33524;55.434;38.520;2023-03-19T09:19:45;2.45;;;1.08;;
47760;SDS011;33524;55.434;38.520;2023-03-19T09:22:12;6.07;;;3.60;;
47760;SDS011;33524;55.434;38.520;2023-03-19T09:24:39;4.37;;;2.78;;
47760;SDS011;33524;55.434;38.520;2023-03-19T09:27:06;15.02;;;4.05;;
47760;SDS011;33524;55.434;38.520;2023-03-19T09:29:33;4.12;;;1.77;;
47760;SDS011;33524;55.434;38.520;2023-03-19T09:32:00;4.28;;;2.78;;
47760;SDS011;33524;55.434;38.520;2023-03-19T09:34:26;6.87;;;3.87;;
47760;SDS011;33524;55.434;38.520;2023-03-19T09:36:53;8.27;;;3.95;;
47760;SDS011;33524;55.434;38.520;2023-03-19T09:39:22;6.90;;;4.07;;
47760;SDS011;33524;55.434;38.520;2023-03-19T09:41:55;7.97;;;3.78;;
47760;SDS011;33524;55.434;38.520;2023-03-19T09:44:45;5.75;;;3.03;;
47760;SDS011;33524;55.434;38.520;2023-03-19T09:47:21;3.67;;;2.20;;
47760;SDS011;33524;55.434;38.520;2023-03-19T09:49:55;6.28;;;3.92;;
47760;SDS011;33524;55.434;38.520;2023-03-19T09:52:58;6.10;;;4.65;;
47760;SDS011;33524;55.434;38.520;2023-03-19T09:58:01;4.03;;;2.75;;
47760;SDS011;33524;55.434;38.520;2023-03-19T10:00:37;5.62;;;2.90;;
47760;SDS011;33524;55.434;38.520;2023-03-19T10:15:55;4.90;;;3.20;;
47760;SDS011;33524;55.434;38.520;2023-03-19T10:18:48;5.12;;;2.92;;
47760;SDS011;33524;55.434;38.520;2023-03-19T10:20:37;5.32;;;3.10;;
47760;SDS011;33524;55.434;38.520;2023-03-19T10:25:55;2.90;;;2.42;;
47760;SDS011;33524;55.434;38.520;2023-03-19T10:28:26;6.68;;;3.40;;
47760;SDS011;33524;55.434;38.520;2023-03-19T10:33:44;6.57;;;3.03;;
47760;SDS011;33524;55.434;38.520;2023-03-19T10:36:25;5.10;;;3.10;;
47760;SDS011;33524;55.434;38.520;2023-03-19T10:38:55;7.07;;;3.62;;
47760;SDS011;33524;55.434;38.520;2023-03-19T10:41:24;5.25;;;2.80;;
47760;SDS011;33524;55.434;38.520;2023-03-19T10:43:59;4.75;;;3.12;;
47760;SDS011;33524;55.434;38.520;2023-03-19T10:46:36;5.57;;;3.30;;
47760;SDS011;33524;55.434;38.520;2023-03-19T10:49:10;5.82;;;3.40;;
47760;SDS011;33524;55.434;38.520;2023-03-19T10:51:38;4.10;;;2.70;;
47760;SDS011;33524;55.434;38.520;2023-03-19T10:54:16;5.03;;;3.10;;
47760;SDS011;33524;55.434;38.520;2023-03-19T10:56:45;5.72;;;3.20;;
47760;SDS011;33524;55.434;38.520;2023-03-19T10:59:44;4.93;;;2.85;;
47760;SDS011;33524;55.434;38.520;2023-03-19T11:02:12;6.55;;;2.87;;
47760;SDS011;33524;55.434;38.520;2023-03-19T11:04:43;5.18;;;3.22;;
47760;SDS011;33524;55.434;38.520;2023-03-19T11:07:12;3.60;;;2.55;;
47760;SDS011;33524;55.434;38.520;2023-03-19T11:09:43;5.97;;;3.37;;
47760;SDS011;33524;55.434;38.520;2023-03-19T11:12:17;4.57;;;2.55;;
47760;SDS011;33524;55.434;38.520;2023-03-19T11:14:46;5.25;;;3.25;;
47760;SDS011;33524;55.434;38.520;2023-03-19T11:19:47;5.60;;;2.90;;
47760;SDS011;33524;55.434;38.520;2023-03-19T11:24:54;5.97;;;3.03;;
47760;SDS011;33524;55.434;38.520;2023-03-19T11:27:26;5.07;;;2.65;;
47760;SDS011;33524;55.434;38.520;2023-03-19T11:29:53;7.30;;;3.83;;
47760;SDS011;33524;55.434;38.520;2023-03-19T11:34:53;5.25;;;3.33;;
47760;SDS011;33524;55.434;38.520;2023-03-19T11:37:57;7.60;;;3.60;;
47760;SDS011;33524;55.434;38.520;2023-03-19T11:40:20;6.28;;;3.65;;
47760;SDS011;33524;55.434;38.520;2023-03-19T11:44:16;4.10;;;2.37;;
47760;SDS011;33524;55.434;38.520;2023-03-19T11:49:10;5.70;;;2.83;;
47760;SDS011;33524;55.434;38.520;2023-03-19T12:00:57;5.53;;;3.50;;
47760;SDS011;33524;55.434;38.520;2023-03-19T12:09:46;3.08;;;2.20;;
47760;SDS011;33524;55.434;38.520;2023-03-19T12:12:24;4.80;;;1.95;;
47760;SDS011;33524;55.434;38.520;2023-03-19T12:29:28;5.43;;;3.42;;
47760;SDS011;33524;55.434;38.520;2023-03-19T12:35:00;7.53;;;3.75;;
47760;SDS011;33524;55.434;38.520;2023-03-19T12:37:37;8.15;;;4.10;;
47760;SDS011;33524;55.434;38.520;2023-03-19T12:40:27;7.15;;;3.97;;
47760;SDS011;33524;55.434;38.520;2023-03-19T12:43:01;7.43;;;3.83;;
47760;SDS011;33524;55.434;38.520;2023-03-19T12:45:39;8.85;;;4.53;;
47760;SDS011;33524;55.434;38.520;2023-03-19T12:50:40;8.88;;;4.60;;
47760;SDS011;33524;55.434;38.520;2023-03-19T12:53:12;6.93;;;4.65;;
47760;SDS011;33524;55.434;38.520;2023-03-19T12:55:52;8.10;;;3.80;;
47760;SDS011;33524;55.434;38.520;2023-03-19T12:58:36;6.95;;;3.97;;
47760;SDS011;33524;55.434;38.520;2023-03-19T13:01:13;8.50;;;4.68;;
47760;SDS011;33524;55.434;38.520;2023-03-19T13:03:50;10.93;;;3.92;;
47760;SDS011;33524;55.434;38.520;2023-03-19T13:06:25;5.90;;;3.92;;
47760;SDS011;33524;55.434;38.520;2023-03-19T13:09:00;6.82;;;3.97;;
47760;SDS011;33524;55.434;38.520;2023-03-19T13:11:34;7.05;;;4.53;;
47760;SDS011;33524;55.434;38.520;2023-03-19T13:16:50;7.50;;;3.62;;
47760;SDS011;33524;55.434;38.520;2023-03-19T13:19:28;6.40;;;3.55;;
47760;SDS011;33524;55.434;38.520;2023-03-19T13:22:04;6.10;;;3.62;;
47760;SDS011;33524;55.434;38.520;2023-03-19T13:24:37;6.55;;;3.75;;
47760;SDS011;33524;55.434;38.520;2023-03-19T13:27:06;6.32;;;3.87;;
47760;SDS011;33524;55.434;38.520;2023-03-19T13:32:35;6.12;;;4.12;;
47760;SDS011;33524;55.434;38.520;2023-03-19T13:35:08;8.02;;;3.90;;
47760;SDS011;33524;55.434;38.520;2023-03-19T13:37:45;6.85;;;4.20;;
47760;SDS011;33524;55.434;38.520;2023-03-19T13:40:36;6.00;;;3.37;;
47760;SDS011;33524;55.434;38.520;2023-03-19T13:43:03;7.53;;;4.03;;
47760;SDS011;33524;55.434;38.520;2023-03-19T13:45:32;5.28;;;3.53;;
47760;SDS011;33524;55.434;38.520;2023-03-19T13:50:54;6.00;;;3.28;;
47760;SDS011;33524;55.434;38.520;2023-03-19T13:53:51;5.20;;;3.42;;
47760;SDS011;33524;55.434;38.520;2023-03-19T13:56:31;5.65;;;3.72;;
47760;SDS011;33524;55.434;38.520;2023-03-19T14:01:50;6.03;;;3.25;;
47760;SDS011;33524;55.434;38.520;2023-03-19T14:04:25;6.03;;;3.20;;
47760;SDS011;33524;55.434;38.520;2023-03-19T14:06:56;5.95;;;3.20;;
47760;SDS011;33524;55.434;38.520;2023-03-19T14:09:46;5.43;;;2.83;;
47760;SDS011;33524;55.434;38.520;2023-03-19T14:12:20;4.60;;;2.67;;
47760;SDS011;33524;55.434;38.520;2023-03-19T14:14:59;6.55;;;3.50;;
47760;SDS011;33524;55.434;38.520;2023-03-19T14:17:32;6.25;;;3.12;;
47760;SDS011;33524;55.434;38.520;2023-03-19T14:20:22;6.93;;;3.20;;
47760;SDS011;33524;55.434;38.520;2023-03-19T14:31:16;6.45;;;3.35;;
47760;SDS011;33524;55.434;38.520;2023-03-19T14:33:57;5.03;;;3.05;;
47760;SDS011;33524;55.434;38.520;2023-03-19T14:36:30;5.12;;;2.80;;
47760;SDS011;33524;55.434;38.520;2023-03-19T14:38:58;6.20;;;3.03;;
47760;SDS011;33524;55.434;38.520;2023-03-19T14:41:31;4.78;;;3.12;;
47760;SDS011;33524;55.434;38.520;2023-03-19T14:47:59;5.12;;;3.00;;
47760;SDS011;33524;55.434;38.520;2023-03-19T14:52:39;6.00;;;3.50;;
47760;SDS011;33524;55.434;38.520;2023-03-19T14:55:09;5.20;;;2.85;;
47760;SDS011;33524;55.434;38.520;2023-03-19T14:57:41;4.80;;;3.10;;
47760;SDS011;33524;55.434;38.520;2023-03-19T15:00:12;7.53;;;3.17;;
47760;SDS011;33524;55.434;38.520;2023-03-19T15:02:43;8.65;;;3.95;;
47760;SDS011;33524;55.434;38.520;2023-03-19T15:05:17;4.30;;;2.67;;
47760;SDS011;33524;55.434;38.520;2023-03-19T15:07:49;4.95;;;3.03;;
47760;SDS011;33524;55.434;38.520;2023-03-19T15:10:22;7.57;;;3.37;;
47760;SDS011;33524;55.434;38.520;2023-03-19T15:12:59;5.45;;;2.72;;
47760;SDS011;33524;55.434;38.520;2023-03-19T15:18:34;3.97;;;2.70;;
47760;SDS011;33524;55.434;38.520;2023-03-19T15:21:03;6.22;;;3.20;;
47760;SDS011;33524;55.434;38.520;2023-03-19T15:23:31;4.90;;;3.60;;
47760;SDS011;33524;55.434;38.520;2023-03-19T15:25:59;6.78;;;3.35;;
47760;SDS011;33524;55.434;38.520;2023-03-19T15:28:28;5.03;;;3.10;;
47760;SDS011;33524;55.434;38.520;2023-03-19T15:31:01;7.50;;;4.82;;
47760;SDS011;33524;55.434;38.520;2023-03-19T15:33:50;7.85;;;4.12;;
47760;SDS011;33524;55.434;38.520;2023-03-19T15:36:18;8.15;;;4.40;;
47760;SDS011;33524;55.434;38.520;2023-03-19T15:41:25;11.77;;;4.65;;
47760;SDS011;33524;55.434;38.520;2023-03-19T15:43:56;5.90;;;3.60;;
47760;SDS011;33524;55.434;38.520;2023-03-19T15:46:26;4.25;;;3.08;;
47760;SDS011;33524;55.434;38.520;2023-03-19T15:49:01;6.47;;;3.35;;
47760;SDS011;33524;55.434;38.520;2023-03-19T15:51:35;5.43;;;3.20;;
47760;SDS011;33524;55.434;38.520;2023-03-19T15:54:02;6.78;;;3.35;;
47760;SDS011;33524;55.434;38.520;2023-03-19T15:56:30;4.65;;;3.12;;
47760;SDS011;33524;55.434;38.520;2023-03-19T15:58:57;8.73;;;4.50;;
47760;SDS011;33524;55.434;38.520;2023-03-19T16:01:25;9.00;;;4.15;;
47760;SDS011;33524;55.434;38.520;2023-03-19T16:03:55;6.93;;;4.50;;
47760;SDS011;33524;55.434;38.520;2023-03-19T16:06:28;8.43;;;4.70;;
47760;SDS011;33524;55.434;38.520;2023-03-19T16:09:18;10.00;;;5.55;;
47760;SDS011;33524;55.434;38.520;2023-03-19T16:11:57;12.23;;;5.85;;
47760;SDS011;33524;55.434;38.520;2023-03-19T16:14:30;6.37;;;4.32;;
47760;SDS011;33524;55.434;38.520;2023-03-19T16:17:32;8.23;;;5.28;;
47760;SDS011;33524;55.434;38.520;2023-03-19T16:20:01;9.70;;;5.35;;
47760;SDS011;33524;55.434;38.520;2023-03-19T16:22:29;11.02;;;4.78;;
47760;SDS011;33524;55.434;38.520;2023-03-19T16:24:58;9.27;;;4.20;;
47760;SDS011;33524;55.434;38.520;2023-03-19T16:29:59;7.72;;;4.55;;
47760;SDS011;33524;55.434;38.520;2023-03-19T16:32:29;9.40;;;6.35;;